Time;durP1;ratioP1;P1;durP2;ratioP2;P2;SDS_P1;SDS_P2;PMS_P1;PMS_P2;Temp;Humidity;BMP_temperature;BMP_pressure;BME280_temperature;BME280_humidity;BME280_pressure;Samples;Min_cycle;Max_cycle;Signal;HPM_P1;HPM_P2
2023/08/13 00:02:03;;;;;;;;;5.25;5.25;;;;;26.04;43.17;100924.50;5054450;28;45366;-72
2023/08/13 00:04:28;;;;;;;;;5.25;5.25;;;;;26.00;43.54;100923.13;5054606;28;45457;-71
2023/08/13 00:06:53;;;;;;;;;6.25;6.25;;;;;25.98;43.73;100927.81;5058328;28;45296;-73
2023/08/13 00:09:19;;;;;;;;;4.00;4.00;;;;;26.01;43.30;100924.00;5057762;28;51581;-70
2023/08/13 00:11:44;;;;;;;;;7.00;7.00;;;;;26.00;43.71;100911.53;5058294;28;45244;-72
2023/08/13 00:14:10;;;;;;;;;5.25;5.25;;;;;26.09;43.81;100919.50;5058094;28;45319;-71
2023/08/13 00:16:35;;;;;;;;;5.00;5.00;;;;;26.07;43.60;100915.28;5040313;28;45510;-71
2023/08/13 00:19:00;;;;;;;;;4.00;4.00;;;;;25.99;43.84;100905.25;5058102;28;45506;-70
2023/08/13 00:21:25;;;;;;;;;2.75;2.75;;;;;26.00;43.76;100920.44;5057043;28;47116;-71
2023/08/13 00:23:51;;;;;;;;;3.00;3.00;;;;;25.94;43.78;100908.41;5058537;28;66957;-69
2023/08/13 00:26:16;;;;;;;;;3.50;3.50;;;;;25.95;43.99;100909.28;5057845;28;45323;-69
2023/08/13 00:28:41;;;;;;;;;3.25;3.25;;;;;25.89;43.96;100901.81;5056725;28;47952;-71
2023/08/13 00:31:07;;;;;;;;;3.75;3.75;;;;;25.89;44.23;100902.63;5055366;28;47405;-70
2023/08/13 00:33:32;;;;;;;;;3.75;3.75;;;;;25.88;44.08;100910.91;5056479;28;50508;-71
2023/08/13 00:35:57;;;;;;;;;4.00;3.00;;;;;25.77;44.25;100891.28;5056024;28;63451;-72
2023/08/13 00:38:23;;;;;;;;;2.25;2.25;;;;;25.72;44.66;100896.28;5057014;28;45650;-71
2023/08/13 00:40:48;;;;;;;;;5.00;5.00;;;;;25.75;44.62;100903.19;5056880;28;45241;-71
2023/08/13 00:43:13;;;;;;;;;5.00;4.25;;;;;25.76;44.48;100897.66;5056238;28;64205;-73
2023/08/13 00:45:40;;;;;;;;;5.25;5.25;;;;;25.76;44.77;100900.34;5056784;28;45384;-72
2023/08/13 00:48:06;;;;;;;;;5.00;4.25;;;;;25.68;44.47;100894.88;5057017;28;45458;-70
2023/08/13 00:50:31;;;;;;;;;4.00;4.00;;;;;25.64;44.88;100888.13;5056531;28;46091;-70
2023/08/13 00:52:57;;;;;;;;;4.25;4.25;;;;;25.60;45.33;100897.50;5056454;28;45334;-71
2023/08/13 00:55:22;;;;;;;;;3.00;3.00;;;;;25.63;45.00;100889.94;5056747;28;45380;-70
2023/08/13 00:57:48;;;;;;;;;4.75;4.75;;;;;25.61;45.06;100891.94;5057664;28;45477;-70
2023/08/13 01:00:13;;;;;;;;;4.75;4.75;;;;;25.50;45.82;100890.34;5057379;28;45304;-72
2023/08/13 01:02:39;;;;;;;;;3.75;3.75;;;;;25.47;45.26;100890.66;5039511;28;45887;-71
2023/08/13 01:05:07;;;;;;;;;5.00;5.00;;;;;25.48;45.20;100886.94;5056827;28;45345;-70
2023/08/13 01:08:06;;;;;;;;;5.00;5.00;;;;;25.50;45.54;100895.72;5056851;28;45316;-70
2023/08/13 01:10:36;;;;;;;;;4.00;3.00;;;;;25.49;45.48;100890.47;5038852;28;45462;-70
2023/08/13 01:13:17;;;;;;;;;4.50;4.50;;;;;25.48;45.71;100884.25;5056762;28;45376;-71
2023/08/13 01:15:44;;;;;;;;;2.50;2.50;;;;;25.50;45.73;100887.66;5055996;28;45365;-70
2023/08/13 01:18:10;;;;;;;;;3.25;3.00;;;;;25.41;46.12;100891.19;5060596;28;45599;-70
2023/08/13 01:20:38;;;;;;;;;4.00;3.00;;;;;25.31;45.74;100877.81;5058805;28;46944;-71
2023/08/13 01:23:04;;;;;;;;;6.00;6.00;;;;;25.35;46.02;100886.41;5056580;28;45244;-71
2023/08/13 01:25:31;;;;;;;;;4.00;3.75;;;;;25.37;45.99;100901.44;5056254;28;45432;-72
2023/08/13 01:28:23;;;;;;;;;3.50;3.50;;;;;25.38;45.95;100891.50;5054950;28;45609;-71
2023/08/13 01:30:53;;;;;;;;;3.00;3.00;;;;;25.38;46.07;100876.19;5038188;28;45851;-71
2023/08/13 01:33:27;;;;;;;;;2.75;2.75;;;;;25.36;46.03;100888.09;5056308;28;45320;-69
2023/08/13 01:35:57;;;;;;;;;4.00;4.00;;;;;25.36;45.94;100888.09;5056295;28;45278;-70
2023/08/13 01:38:24;;;;;;;;;3.50;3.50;;;;;25.33;46.09;100878.50;5056442;28;45288;-71
2023/08/13 01:40:50;;;;;;;;;2.50;2.50;;;;;25.30;46.15;100884.19;5056324;28;45278;-71
2023/08/13 01:43:15;;;;;;;;;4.00;4.00;;;;;25.26;46.48;100880.09;5055790;28;45398;-70
2023/08/13 01:45:40;;;;;;;;;5.00;5.00;;;;;25.24;46.13;100880.25;5055942;28;45382;-68
2023/08/13 01:48:06;;;;;;;;;3.00;3.00;;;;;25.28;46.71;100877.25;5054225;28;49921;-69
2023/08/13 01:50:31;;;;;;;;;4.00;4.00;;;;;25.34;45.86;100882.03;5055989;28;45277;-69
2023/08/13 01:52:57;;;;;;;;;3.00;3.00;;;;;25.33;46.63;100881.19;5055207;28;64001;-68
2023/08/13 01:55:22;;;;;;;;;0.00;0.00;;;;;25.30;46.50;100881.50;5056272;28;45414;-72
2023/08/13 01:57:47;;;;;;;;;3.50;3.50;;;;;25.27;46.01;100867.47;5056132;28;45550;-71
2023/08/13 02:00:13;;;;;;;;;3.00;3.00;;;;;25.30;46.44;100873.44;5056037;28;45415;-72
2023/08/13 02:02:39;;;;;;;;;3.75;3.75;;;;;25.19;46.11;100865.56;5056000;28;45320;-73
2023/08/13 02:05:05;;;;;;;;;4.00;4.00;;;;;25.18;46.52;100871.94;5055986;28;45320;-71
2023/08/13 02:07:30;;;;;;;;;8.25;8.25;;;;;25.20;46.81;100868.09;5056134;28;45374;-69
2023/08/13 02:09:55;;;;;;;;;3.75;3.75;;;;;25.01;46.97;100885.22;5055547;28;45221;-70
2023/08/13 02:12:21;;;;;;;;;4.00;4.00;;;;;24.91;46.85;100882.53;5055886;28;45322;-70
2023/08/13 02:14:46;;;;;;;;;2.00;2.00;;;;;24.97;47.15;100874.88;5055580;28;45181;-70
2023/08/13 02:17:14;;;;;;;;;5.00;4.25;;;;;24.92;46.93;100876.16;5055123;28;52224;-70
2023/08/13 02:19:40;;;;;;;;;3.75;3.75;;;;;24.96;47.57;100882.13;5055332;28;45715;-70
2023/08/13 02:22:06;;;;;;;;;4.50;4.50;;;;;24.97;47.07;100883.81;5055725;28;45458;-70
2023/08/13 02:24:31;;;;;;;;;2.00;2.00;;;;;24.91;47.67;100893.31;5056142;28;45438;-70
2023/08/13 02:26:57;;;;;;;;;2.25;2.25;;;;;24.83;47.35;100882.44;5055942;28;45612;-71
2023/08/13 02:29:22;;;;;;;;;3.25;3.25;;;;;24.90;47.17;100888.94;5055622;28;45643;-71
2023/08/13 02:31:47;;;;;;;;;3.75;3.25;;;;;24.89;47.79;100891.75;5055532;28;45314;-69
2023/08/13 02:34:13;;;;;;;;;2.00;2.00;;;;;24.88;48.00;100885.53;5054864;28;65080;-68
2023/08/13 02:36:38;;;;;;;;;3.50;3.25;;;;;24.75;47.89;100887.72;5055748;28;49344;-69
2023/08/13 02:39:03;;;;;;;;;3.75;3.75;;;;;24.59;48.22;100873.03;5055573;28;45366;-69
2023/08/13 02:41:29;;;;;;;;;3.00;3.00;;;;;24.65;48.48;100875.13;5055547;28;45411;-69
2023/08/13 02:43:56;;;;;;;;;4.00;4.00;;;;;24.60;48.59;100874.72;5056158;28;45438;-70
2023/08/13 02:46:23;;;;;;;;;3.00;3.00;;;;;24.57;48.30;100877.69;5056691;28;45600;-70
2023/08/13 02:48:48;;;;;;;;;4.50;4.50;;;;;24.55;48.70;100874.31;5055857;28;46357;-71
2023/08/13 02:51:14;;;;;;;;;4.00;4.00;;;;;24.52;48.64;100871.91;5055983;28;45323;-71
2023/08/13 02:53:41;;;;;;;;;2.00;2.00;;;;;24.54;48.87;100869.06;5057352;28;45454;-69
2023/08/13 02:56:07;;;;;;;;;1.50;1.50;;;;;24.61;48.26;100873.72;5056046;28;45327;-71
2023/08/13 02:58:32;;;;;;;;;2.00;2.00;;;;;24.39;48.84;100842.66;5054994;28;46169;-72
2023/08/13 03:00:57;;;;;;;;;3.00;3.00;;;;;24.54;48.83;100867.22;5054624;28;57738;-70
2023/08/13 03:03:23;;;;;;;;;3.00;3.00;;;;;24.47;48.92;100852.69;5055832;28;45410;-71
2023/08/13 03:05:48;;;;;;;;;3.25;3.25;;;;;24.43;49.19;100849.44;5055384;28;45295;-70
2023/08/13 03:08:13;;;;;;;;;3.25;3.25;;;;;24.43;49.26;100853.97;5054615;28;61676;-69
2023/08/13 03:10:38;;;;;;;;;5.50;3.50;;;;;24.48;49.26;100857.06;5055059;28;46061;-70
2023/08/13 03:13:04;;;;;;;;;2.25;2.25;;;;;24.47;49.09;100848.13;5054490;28;60702;-71
2023/08/13 03:15:29;;;;;;;;;2.75;2.75;;;;;24.59;49.22;100848.81;5055707;28;45319;-70
2023/08/13 03:17:56;;;;;;;;;4.00;4.00;;;;;24.59;49.13;100848.81;5055227;28;45923;-71
2023/08/13 03:20:21;;;;;;;;;3.00;3.00;;;;;24.57;49.02;100844.56;5054791;28;45256;-69
2023/08/13 03:22:47;;;;;;;;;2.00;2.00;;;;;24.60;48.89;100850.50;5053418;28;46690;-69
2023/08/13 03:25:12;;;;;;;;;3.00;3.00;;;;;24.61;48.88;100845.97;5055254;28;45245;-70
2023/08/13 03:27:37;;;;;;;;;4.00;4.00;;;;;24.61;49.22;100844.13;5054850;28;47456;-70
2023/08/13 03:30:03;;;;;;;;;3.50;3.50;;;;;24.49;49.43;100839.94;5054375;28;57097;-69
2023/08/13 03:32:29;;;;;;;;;3.75;3.75;;;;;24.60;49.58;100844.28;5055599;28;45335;-71
2023/08/13 03:34:54;;;;;;;;;2.50;2.00;;;;;24.58;49.07;100847.13;5058317;28;45369;-69
2023/08/13 03:37:19;;;;;;;;;3.00;3.00;;;;;24.62;49.11;100851.22;5055046;28;45809;-70
2023/08/13 03:39:45;;;;;;;;;3.00;3.00;;;;;24.65;49.25;100850.91;5057105;28;45959;-70
2023/08/13 03:42:10;;;;;;;;;3.75;3.75;;;;;24.66;49.10;100854.44;5061613;28;48592;-70
2023/08/13 03:44:35;;;;;;;;;5.25;5.25;;;;;24.64;49.29;100854.59;5061816;28;45339;-70
2023/08/13 03:47:01;;;;;;;;;3.75;3.75;;;;;24.59;49.17;100858.72;5061467;28;45623;-70
2023/08/13 03:49:26;;;;;;;;;3.00;3.00;;;;;24.52;49.42;100858.47;5061673;28;45435;-70
2023/08/13 03:51:52;;;;;;;;;2.00;2.00;;;;;24.44;50.04;100859.19;5060133;28;45401;-69
2023/08/13 03:54:17;;;;;;;;;3.00;3.00;;;;;24.34;50.03;100855.69;5061784;28;45534;-68
2023/08/13 03:56:42;;;;;;;;;4.00;4.00;;;;;24.35;49.76;100852.00;5061448;28;46128;-71
2023/08/13 03:59:08;;;;;;;;;4.75;3.00;;;;;24.24;50.47;100819.91;5061885;28;45387;-71
2023/08/13 04:01:33;;;;;;;;;4.75;4.00;;;;;24.35;49.95;100852.81;5061297;28;52978;-70
2023/08/13 04:03:58;;;;;;;;;5.00;5.00;;;;;24.35;50.18;100850.13;5061945;28;45299;-71
2023/08/13 04:06:25;;;;;;;;;3.25;3.00;;;;;24.36;50.38;100854.53;5060191;28;71101;-69
2023/08/13 04:08:50;;;;;;;;;4.00;4.00;;;;;24.38;50.74;100846.31;5061334;28;45383;-69
2023/08/13 04:11:16;;;;;;;;;4.00;4.00;;;;;24.34;50.64;100840.38;5061126;28;45246;-71
2023/08/13 04:13:41;;;;;;;;;4.50;4.00;;;;;24.32;50.99;100844.22;5061097;28;45427;-71
2023/08/13 04:16:06;;;;;;;;;3.00;3.00;;;;;24.27;51.01;100841.97;5061185;28;51761;-71
2023/08/13 04:18:31;;;;;;;;;4.00;4.00;;;;;24.24;50.51;100847.63;5061020;28;64389;-67
2023/08/13 04:20:57;;;;;;;;;3.75;3.75;;;;;24.24;50.67;100844.09;5062065;28;45807;-71
2023/08/13 04:23:22;;;;;;;;;3.00;3.00;;;;;24.20;50.64;100855.16;5061785;28;49455;-70
2023/08/13 04:25:47;;;;;;;;;4.25;4.25;;;;;24.10;51.58;100862.38;5061109;28;46859;-70
2023/08/13 04:28:13;;;;;;;;;3.25;3.25;;;;;24.13;51.40;100850.47;5060762;28;63002;-71
2023/08/13 04:30:38;;;;;;;;;5.00;5.00;;;;;24.12;51.58;100867.59;5061742;28;45333;-70
2023/08/13 04:33:04;;;;;;;;;4.00;4.00;;;;;24.13;51.28;100847.78;5062765;28;45347;-72
2023/08/13 04:35:29;;;;;;;;;4.00;4.00;;;;;24.16;51.29;100860.94;5062186;28;46135;-69
2023/08/13 04:37:55;;;;;;;;;4.50;4.50;;;;;24.14;51.79;100865.59;5061016;28;51957;-70
2023/08/13 04:40:20;;;;;;;;;3.25;3.25;;;;;24.21;51.20;100862.22;5043293;28;45338;-72
2023/08/13 04:42:45;;;;;;;;;3.00;3.00;;;;;24.17;51.18;100858.13;5061109;28;51695;-70
2023/08/13 04:45:15;;;;;;;;;4.00;4.00;;;;;24.17;51.50;100866.19;5061731;28;46517;-69
2023/08/13 04:47:41;;;;;;;;;3.00;3.00;;;;;24.14;51.36;100855.72;5062633;28;45249;-73
2023/08/13 04:50:08;;;;;;;;;3.00;3.00;;;;;24.12;51.53;100868.47;5063374;28;45291;-70
2023/08/13 04:52:33;;;;;;;;;3.00;3.00;;;;;23.96;52.21;100863.63;5059283;28;45198;-70
2023/08/13 04:54:59;;;;;;;;;2.50;2.50;;;;;23.97;52.37;100859.94;5057734;28;46316;-69
2023/08/13 04:57:24;;;;;;;;;4.00;2.75;;;;;23.93;52.04;100856.72;5057502;28;45373;-71
2023/08/13 04:59:49;;;;;;;;;3.00;3.00;;;;;23.91;52.73;100861.38;5057712;28;45594;-70
2023/08/13 05:02:15;;;;;;;;;3.00;3.00;;;;;23.91;52.03;100856.00;5057141;28;55101;-69
2023/08/13 05:04:40;;;;;;;;;3.00;3.00;;;;;23.98;51.99;100867.00;5057785;28;46304;-71
2023/08/13 05:07:06;;;;;;;;;4.00;4.00;;;;;23.97;52.15;100865.31;5056795;28;55327;-70
2023/08/13 05:09:31;;;;;;;;;3.50;3.50;;;;;23.99;52.60;100863.34;5058230;28;45346;-71
2023/08/13 05:11:57;;;;;;;;;4.00;4.00;;;;;24.00;52.69;100859.69;5059010;28;45467;-69
2023/08/13 05:14:22;;;;;;;;;3.00;3.00;;;;;24.10;51.83;100865.06;5057205;28;45404;-69
2023/08/13 05:16:48;;;;;;;;;4.25;3.75;;;;;24.13;52.19;100869.28;5057233;28;45343;-71
2023/08/13 05:19:13;;;;;;;;;3.75;3.75;;;;;24.15;52.33;100870.84;5057223;28;45584;-72
2023/08/13 05:21:39;;;;;;;;;3.00;3.00;;;;;24.17;52.27;100862.63;5057495;28;45376;-71
2023/08/13 05:24:04;;;;;;;;;2.75;2.75;;;;;24.01;52.12;100834.50;5039099;28;46217;-73
2023/08/13 05:26:30;;;;;;;;;3.25;3.00;;;;;24.23;52.28;100856.69;5057114;28;45383;-73
2023/08/13 05:28:55;;;;;;;;;2.00;2.00;;;;;24.26;52.18;100861.75;5057000;28;52873;-73
2023/08/13 05:31:20;;;;;;;;;4.00;3.00;;;;;24.20;52.38;100863.22;5056869;28;47156;-71
2023/08/13 05:33:46;;;;;;;;;3.25;3.25;;;;;24.13;52.53;100858.53;5056955;28;45415;-69
2023/08/13 05:36:11;;;;;;;;;3.00;3.00;;;;;24.20;52.58;100863.22;5055619;28;45441;-72
2023/08/13 05:38:36;;;;;;;;;4.00;4.00;;;;;24.21;52.34;100858.66;5056540;28;57375;-70
2023/08/13 05:41:02;;;;;;;;;2.75;2.75;;;;;24.18;52.46;100865.19;5057415;28;45227;-70
2023/08/13 05:43:27;;;;;;;;;4.00;2.00;;;;;24.18;51.98;100865.19;5056624;28;46103;-70
2023/08/13 05:45:52;;;;;;;;;2.25;2.25;;;;;24.25;52.26;100868.13;5056528;28;45345;-71
2023/08/13 05:48:18;;;;;;;;;2.00;2.00;;;;;24.30;52.09;100863.16;5057117;28;45370;-70
2023/08/13 05:50:43;;;;;;;;;2.75;2.75;;;;;24.35;51.96;100877.03;5057192;28;45479;-69
2023/08/13 05:53:08;;;;;;;;;4.50;4.50;;;;;24.27;52.07;100841.97;5056721;28;45811;-71
2023/08/13 05:55:34;;;;;;;;;3.00;3.00;;;;;24.44;51.98;100867.25;5057452;28;45317;-70
2023/08/13 05:57:59;;;;;;;;;4.50;4.50;;;;;24.48;52.37;100863.28;5059022;28;45201;-70
2023/08/13 06:00:25;;;;;;;;;2.25;2.25;;;;;24.52;51.98;100869.22;5040777;28;45353;-71
2023/08/13 06:02:50;;;;;;;;;3.00;3.00;;;;;24.56;52.22;100876.00;5056390;28;48339;-72
2023/08/13 06:05:16;;;;;;;;;5.00;5.00;;;;;24.60;51.71;100871.16;5061594;28;57726;-70
2023/08/13 06:07:41;;;;;;;;;3.00;2.50;;;;;24.65;51.47;100880.50;5062836;28;45331;-71
2023/08/13 06:10:07;;;;;;;;;2.75;2.75;;;;;24.65;51.97;100880.50;5057239;28;45257;-69
2023/08/13 06:12:33;;;;;;;;;13.50;13.00;;;;;24.65;51.40;100876.94;5056385;28;46090;-69
2023/08/13 06:14:59;;;;;;;;;3.25;3.25;;;;;24.70;52.11;100882.72;5056725;28;45623;-70
2023/08/13 06:17:25;;;;;;;;;4.75;3.50;;;;;24.71;51.53;100872.84;5056874;28;45343;-70
2023/08/13 06:19:50;;;;;;;;;3.00;3.00;;;;;24.77;51.95;100883.03;5056816;28;45497;-70
2023/08/13 06:22:15;;;;;;;;;4.00;4.00;;;;;24.84;51.48;100883.28;5056352;28;46048;-69
2023/08/13 06:24:41;;;;;;;;;4.00;4.00;;;;;24.84;51.34;100878.75;5054914;28;45330;-70
2023/08/13 06:27:06;;;;;;;;;4.50;4.50;;;;;24.84;51.51;100884.13;5056893;28;45350;-70
2023/08/13 06:29:32;;;;;;;;;4.50;4.00;;;;;24.80;51.44;100871.97;5056803;28;45392;-70
2023/08/13 06:31:57;;;;;;;;;5.25;5.25;;;;;24.90;51.67;100880.84;5056280;28;46121;-69
2023/08/13 06:34:22;;;;;;;;;4.25;4.25;;;;;24.92;51.11;100892.31;5056213;28;54022;-69
2023/08/13 06:36:47;;;;;;;;;3.00;3.00;;;;;24.97;51.30;100885.63;5038384;28;45440;-70
2023/08/13 06:39:13;;;;;;;;;4.00;4.00;;;;;24.97;50.94;100886.50;5057006;28;45335;-70
2023/08/13 06:41:38;;;;;;;;;6.00;5.00;;;;;25.05;51.11;100891.13;5056509;28;46116;-71
2023/08/13 06:44:05;;;;;;;;;4.00;4.00;;;;;25.05;51.26;100883.03;5056678;28;45366;-71
2023/08/13 06:46:30;;;;;;;;;4.00;4.00;;;;;25.12;50.90;100886.84;5057806;28;45419;-68
2023/08/13 06:48:55;;;;;;;;;6.00;4.00;;;;;25.10;51.44;100883.44;5056297;28;45323;-70
2023/08/13 06:51:21;;;;;;;;;4.00;4.00;;;;;25.10;50.55;100872.69;5055912;28;45432;-70
2023/08/13 06:53:46;;;;;;;;;4.00;4.00;;;;;25.20;50.70;100884.25;5037711;28;45338;-70
2023/08/13 06:56:11;;;;;;;;;3.00;3.00;;;;;25.29;50.71;100887.88;5055721;28;53297;-70
2023/08/13 06:58:36;;;;;;;;;4.25;4.25;;;;;25.31;50.48;100879.63;5056434;28;45497;-71
2023/08/13 07:01:03;;;;;;;;;3.75;3.75;;;;;25.38;50.00;100892.34;5055144;28;62772;-70
2023/08/13 07:03:28;;;;;;;;;2.00;2.00;;;;;25.31;50.12;100876.94;5055851;28;45373;-70
2023/08/13 07:05:54;;;;;;;;;3.00;3.00;;;;;25.34;49.82;100879.34;5055718;28;45402;-70
2023/08/13 07:08:21;;;;;;;;;2.25;2.25;;;;;25.30;49.62;100892.28;5037875;28;45335;-71
2023/08/13 07:10:46;;;;;;;;;2.50;2.50;;;;;25.27;49.65;100889.88;5055508;28;46145;-71
2023/08/13 07:13:11;;;;;;;;;2.25;2.25;;;;;25.32;49.71;100886.72;5055694;28;45247;-72
2023/08/13 07:15:37;;;;;;;;;3.00;3.00;;;;;25.34;49.43;100892.78;5055357;28;45168;-71
2023/08/13 07:18:03;;;;;;;;;2.00;2.00;;;;;25.41;49.30;100893.88;5055888;28;45668;-70
2023/08/13 07:20:29;;;;;;;;;5.50;5.50;;;;;25.48;49.23;100892.34;5055311;28;47075;-70
2023/08/13 07:22:58;;;;;;;;;4.00;4.00;;;;;25.51;49.29;100891.16;5055520;28;49588;-71
2023/08/13 07:25:24;;;;;;;;;3.75;3.75;;;;;25.50;49.20;100882.25;5055835;28;45353;-70
2023/08/13 07:27:49;;;;;;;;;3.00;3.00;;;;;25.62;49.04;100887.41;5055538;28;45347;-70
2023/08/13 07:30:14;;;;;;;;;2.00;2.00;;;;;25.66;48.59;100891.50;5055187;28;45520;-70
2023/08/13 07:32:41;;;;;;;;;2.50;2.50;;;;;25.71;48.67;100886.50;5055580;28;45407;-70
2023/08/13 07:35:07;;;;;;;;;2.25;2.25;;;;;25.88;48.13;100886.66;5055452;28;45253;-72
2023/08/13 07:37:36;;;;;;;;;4.00;4.00;;;;;25.99;47.77;100894.47;5055355;28;45601;-69
2023/08/13 07:40:07;;;;;;;;;6.25;5.50;;;;;26.10;47.37;100888.03;5054829;28;46708;-71
2023/08/13 07:42:33;;;;;;;;;2.00;2.00;;;;;26.11;47.39;100887.00;5055106;28;45209;-71
2023/08/13 07:44:58;;;;;;;;;3.25;3.25;;;;;26.15;47.17;100888.44;5055326;28;45361;-70
2023/08/13 07:47:23;;;;;;;;;4.00;4.00;;;;;26.32;46.92;100889.38;5055335;28;45228;-70
2023/08/13 07:49:48;;;;;;;;;3.75;3.75;;;;;26.43;46.76;100884.72;5053931;28;64202;-71
2023/08/13 07:52:14;;;;;;;;;2.25;2.25;;;;;26.48;46.10;100898.56;5054952;28;54255;-70
2023/08/13 07:54:39;;;;;;;;;1.00;1.00;;;;;26.57;46.25;100881.47;5054558;28;57053;-69
2023/08/13 07:57:05;;;;;;;;;3.00;3.00;;;;;26.72;45.77;100880.88;5055249;28;45224;-72
2023/08/13 07:59:30;;;;;;;;;1.50;1.50;;;;;26.76;45.46;100888.47;5054840;28;45927;-70
2023/08/13 08:01:55;;;;;;;;;1.25;1.25;;;;;26.89;45.17;100888.06;5054655;28;45377;-71
2023/08/13 08:04:21;;;;;;;;;2.75;2.75;;;;;26.94;45.13;100885.72;5054865;28;45424;-71
2023/08/13 08:06:46;;;;;;;;;2.75;2.75;;;;;26.99;44.84;100885.22;5054939;28;45461;-69
2023/08/13 08:09:11;;;;;;;;;1.75;1.75;;;;;27.16;44.77;100891.53;5054908;28;45449;-71
2023/08/13 08:11:37;;;;;;;;;1.75;1.75;;;;;27.24;44.89;100893.44;5054590;28;45520;-72
2023/08/13 08:14:02;;;;;;;;;2.50;2.50;;;;;27.27;43.99;100879.59;5054698;28;45336;-72
2023/08/13 08:16:28;;;;;;;;;4.00;3.75;;;;;27.45;43.95;100878.63;5054724;28;45387;-72
2023/08/13 08:18:53;;;;;;;;;2.50;2.50;;;;;27.50;43.88;100890.63;5054756;28;47169;-73
2023/08/13 08:21:18;;;;;;;;;1.00;1.00;;;;;27.63;43.47;100890.16;5055914;28;45403;-74
2023/08/13 08:23:44;;;;;;;;;1.50;1.50;;;;;27.73;43.38;100892.72;5056508;28;45335;-72
2023/08/13 08:26:09;;;;;;;;;2.75;2.75;;;;;27.81;43.01;100886.47;5055383;28;45470;-72
2023/08/13 08:28:34;;;;;;;;;0.75;0.75;;;;;27.64;42.80;100856.72;5057530;28;46253;-70
2023/08/13 08:31:00;;;;;;;;;2.75;2.00;;;;;27.84;42.60;100878.88;5057363;28;54075;-71
2023/08/13 08:33:26;;;;;;;;;1.00;1.00;;;;;27.88;42.96;100886.66;5055705;28;56448;-71
2023/08/13 08:35:51;;;;;;;;;2.00;2.00;;;;;27.93;42.36;100885.09;5058197;28;45396;-71
2023/08/13 08:38:16;;;;;;;;;2.50;2.50;;;;;28.05;41.55;100884.75;5058071;28;45675;-71
2023/08/13 08:40:42;;;;;;;;;1.75;1.75;;;;;28.13;42.05;100884.78;5039640;28;53201;-68
2023/08/13 08:43:09;;;;;;;;;2.25;2.25;;;;;28.22;41.59;100874.81;5057981;28;45245;-70
2023/08/13 08:45:36;;;;;;;;;6.00;6.00;;;;;28.20;42.04;100866.03;5058014;28;45233;-71
2023/08/13 08:48:03;;;;;;;;;2.50;2.50;;;;;28.22;41.78;100882.94;5056041;28;46582;-69
2023/08/13 08:50:29;;;;;;;;;2.00;2.00;;;;;28.29;41.47;100873.13;5057396;28;45296;-69
2023/08/13 08:52:56;;;;;;;;;2.25;2.25;;;;;28.23;41.09;100866.56;5057417;28;45356;-70
2023/08/13 08:55:21;;;;;;;;;3.00;3.00;;;;;28.23;41.74;100866.56;5057763;28;45284;-69
2023/08/13 08:57:49;;;;;;;;;2.00;2.00;;;;;28.19;41.12;100864.34;5057598;28;46108;-73
2023/08/13 09:00:14;;;;;;;;;1.00;1.00;;;;;28.22;41.73;100858.59;5057652;28;45324;-72
2023/08/13 09:02:41;;;;;;;;;5.00;5.00;;;;;28.36;42.15;100862.47;5057474;28;45170;-71
2023/08/13 09:05:07;;;;;;;;;3.00;3.00;;;;;28.34;41.03;100861.81;5057689;28;45336;-69
2023/08/13 09:07:32;;;;;;;;;1.50;1.50;;;;;28.28;40.59;100858.78;5057173;28;46935;-71
2023/08/13 09:09:59;;;;;;;;;0.00;0.00;;;;;28.29;40.09;100875.81;5057338;28;45400;-72
2023/08/13 09:12:24;;;;;;;;;0.25;0.25;;;;;28.19;40.21;100877.88;5057928;28;45371;-73
2023/08/13 09:14:54;;;;;;;;;0.25;0.25;;;;;28.19;40.33;100877.88;5057543;28;45312;-70
2023/08/13 09:17:24;;;;;;;;;1.75;1.75;;;;;28.28;40.01;100872.28;5057495;28;46085;-70
2023/08/13 09:19:50;;;;;;;;;0.50;0.50;;;;;28.27;39.77;100876.00;5057799;28;45843;-69
2023/08/13 09:22:15;;;;;;;;;0.75;0.75;;;;;28.21;40.19;100875.84;5057578;28;45252;-71
2023/08/13 09:24:44;;;;;;;;;0.25;0.25;;;;;28.22;39.89;100880.22;5057437;28;45617;-72
2023/08/13 09:27:09;;;;;;;;;0.50;0.50;;;;;28.37;39.80;100873.09;5056936;28;45254;-70
2023/08/13 09:29:36;;;;;;;;;2.50;2.50;;;;;28.35;39.58;100872.44;5055341;28;45398;-71
2023/08/13 09:32:02;;;;;;;;;0.00;0.00;;;;;28.31;39.46;100868.38;5057167;28;45350;-72
2023/08/13 09:34:30;;;;;;;;;0.00;0.00;;;;;28.45;39.68;100874.09;5057081;28;45390;-70
2023/08/13 09:36:57;;;;;;;;;0.50;0.50;;;;;28.45;39.71;100866.84;5057246;28;46263;-70
2023/08/13 09:39:27;;;;;;;;;0.00;0.00;;;;;28.50;38.98;100871.72;5056924;28;45392;-70
2023/08/13 09:41:53;;;;;;;;;1.00;1.00;;;;;28.63;38.43;100869.34;5056828;28;45372;-71
2023/08/13 09:44:20;;;;;;;;;1.25;1.25;;;;;28.72;38.30;100868.28;5055616;28;45470;-70
2023/08/13 09:46:53;;;;;;;;;0.50;0.50;;;;;28.73;38.08;100855.59;5056391;28;46392;-70
2023/08/13 09:49:18;;;;;;;;;0.00;0.00;;;;;28.77;38.73;100859.66;5056942;28;45353;-71
2023/08/13 09:51:47;;;;;;;;;1.00;1.00;;;;;28.80;38.46;100855.78;5056900;28;45490;-69
2023/08/13 09:54:22;;;;;;;;;1.00;1.00;;;;;28.84;38.37;100857.13;5057031;28;45605;-71
2023/08/13 09:57:03;;;;;;;;;1.00;1.00;;;;;28.93;37.71;100845.22;5057072;28;45291;-71
2023/08/13 09:59:31;;;;;;;;;1.00;1.00;;;;;28.90;37.82;100855.56;5055791;28;45319;-72
2023/08/13 10:01:57;;;;;;;;;0.00;0.00;;;;;28.82;37.80;100843.75;5057222;28;45404;-70
2023/08/13 10:04:24;;;;;;;;;1.00;1.00;;;;;28.95;37.92;100854.00;5058350;28;45278;-69
2023/08/13 10:06:51;;;;;;;;;0.75;0.75;;;;;29.09;37.37;100849.69;5056830;28;45274;-71
2023/08/13 10:09:16;;;;;;;;;0.75;0.75;;;;;29.19;37.55;100849.47;5038188;28;45422;-71
2023/08/13 10:11:42;;;;;;;;;4.25;4.25;;;;;29.22;37.37;100845.59;5056097;28;45439;-70
2023/08/13 10:14:08;;;;;;;;;2.00;2.00;;;;;29.15;37.04;100848.16;5056504;28;45545;-69
2023/08/13 10:16:34;;;;;;;;;2.00;2.00;;;;;29.11;37.17;100838.69;5056115;28;45414;-69
2023/08/13 10:19:00;;;;;;;;;2.00;2.00;;;;;29.22;37.43;100851.84;5056220;28;45258;-70
2023/08/13 10:21:36;;;;;;;;;0.25;0.25;;;;;29.07;36.98;100849.03;5056170;28;45237;-71
2023/08/13 10:24:04;;;;;;;;;0.00;0.00;;;;;29.17;37.50;100858.81;5056478;28;45273;-70
2023/08/13 10:26:30;;;;;;;;;1.50;1.50;;;;;29.13;37.15;100844.78;5056063;28;45374;-73
2023/08/13 10:28:55;;;;;;;;;1.00;1.00;;;;;29.27;36.59;100845.91;5056187;28;45446;-68
2023/08/13 10:31:31;;;;;;;;;1.75;1.75;;;;;29.42;37.00;100851.41;5056341;28;45332;-69
2023/08/13 10:34:01;;;;;;;;;3.50;3.50;;;;;29.42;36.57;100857.69;5056268;28;45407;-71
2023/08/13 10:36:51;;;;;;;;;1.75;0.75;;;;;29.45;36.82;100845.63;5055828;28;45355;-70
2023/08/13 10:39:29;;;;;;;;;0.00;0.00;;;;;29.49;36.58;100833.41;5055918;28;45372;-74
2023/08/13 10:41:55;;;;;;;;;0.00;0.00;;;;;29.52;37.04;100845.75;5056282;28;45263;-69
2023/08/13 10:44:39;;;;;;;;;1.50;1.50;;;;;29.49;36.94;100841.53;5057057;28;45424;-71
2023/08/13 10:47:05;;;;;;;;;1.00;1.00;;;;;29.69;37.08;100841.03;5055774;28;45736;-71
2023/08/13 10:49:31;;;;;;;;;0.00;0.00;;;;;29.88;36.72;100840.56;5054805;28;45268;-72
2023/08/13 10:52:01;;;;;;;;;2.00;2.00;;;;;29.99;36.40;100827.56;5055869;28;45319;-72
2023/08/13 10:54:26;;;;;;;;;2.00;2.00;;;;;30.16;36.41;100839.97;5055783;28;45566;-70
2023/08/13 10:56:55;;;;;;;;;1.00;1.00;;;;;30.39;36.35;100836.34;5055689;28;46144;-71
2023/08/13 10:59:27;;;;;;;;;2.75;2.75;;;;;30.55;36.13;100834.47;5055719;28;46237;-71
2023/08/13 11:02:15;;;;;;;;;4.75;4.75;;;;;30.67;36.22;100830.28;5037198;28;45569;-72
2023/08/13 11:04:42;;;;;;;;;2.75;2.75;;;;;30.53;36.28;100823.81;5054203;28;45265;-73
2023/08/13 11:07:09;;;;;;;;;1.00;1.00;;;;;30.55;36.18;100829.91;5055015;28;47175;-71
2023/08/13 11:09:36;;;;;;;;;2.75;2.75;;;;;30.53;35.94;100826.53;5054973;28;45245;-71
2023/08/13 11:12:01;;;;;;;;;1.00;1.00;;;;;30.39;35.88;100828.19;5056032;28;45329;-71
2023/08/13 11:14:28;;;;;;;;;1.25;1.25;;;;;30.14;36.13;100827.63;5057577;28;45882;-72
2023/08/13 11:16:54;;;;;;;;;2.50;2.50;;;;;29.96;35.71;100819.81;5056482;28;46273;-69
2023/08/13 11:19:19;;;;;;;;;0.50;0.50;;;;;30.14;35.87;100814.91;5055491;28;45442;-71
2023/08/13 11:21:46;;;;;;;;;1.75;1.75;;;;;30.13;35.74;100818.66;5055693;28;45428;-71